Time;durP1;ratioP1;P1;durP2;ratioP2;P2;SDS_P1;SDS_P2;PMS_P1;PMS_P2;Temp;Humidity;BMP_temperature;BMP_pressure;BME280_temperature;BME280_humidity;BME280_pressure;Samples;Min_cycle;Max_cycle;Signal;HPM_P1;HPM_P2
2022/10/23 00:02:24;;;;;;;;;;;;;;;;;;4962156;28;20002;-54
2022/10/23 00:04:50;;;;;;;;;;;;;;;;;;4957283;28;19937;-56
2022/10/23 00:07:15;;;;;;;;;;;;;;;;;;4962018;28;20272;-54
2022/10/23 00:09:41;;;;;;;;;;;;;;;;;;4958610;28;19926;-54
2022/10/23 00:12:06;;;;;;;;;;;;;;;;;;4957655;28;19996;-54
2022/10/23 00:14:31;;;;;;;;;;;;;;;;;;4953250;28;19919;-54
2022/10/23 00:16:57;;;;;;;;;;;;;;;;;;4955656;28;19944;-54
2022/10/23 00:19:22;;;;;;;;;;;;;;;;;;4957336;28;20292;-55
2022/10/23 00:21:47;;;;;;;;;;;;;;;;;;4956934;28;19930;-54
2022/10/23 00:24:12;;;;;;;;;;;;;;;;;;4959689;28;20292;-53
2022/10/23 00:26:39;;;;;;;;;;;;;;;;;;4953335;28;19923;-54
2022/10/23 00:29:04;;;;;;;;;;;;;;;;;;4952372;28;19969;-56
2022/10/23 00:31:29;;;;;;;;;;;;;;;;;;4955576;28;20368;-54
2022/10/23 00:33:55;;;;;;;;;;;;;;;;;;4957532;28;19922;-53
2022/10/23 00:36:21;;;;;;;;;;;;;;;;;;4956364;28;19926;-54
2022/10/23 00:38:46;;;;;;;;;;;;;;;;;;4961449;28;19926;-54
2022/10/23 00:41:19;;;;;;;;;;;;;;;;;;4957593;28;20339;-54
2022/10/23 00:43:57;;;;;;;;;;;;;;;;;;4963081;28;19922;-54
2022/10/23 00:46:22;;;;;;;;;;;;;;;;;;4961368;28;20031;-55
2022/10/23 00:48:47;;;;;;;;;;;;;;;;;;4956945;28;20411;-53
2022/10/23 00:51:13;;;;;;;;;;;;;;;;;;4956664;28;19918;-54
2022/10/23 00:53:38;;;;;;;;;;;;;;;;;;4959767;28;20026;-53
2022/10/23 00:56:04;;;;;;;;;;;;;;;;;;4957462;28;19919;-55
2022/10/23 00:58:29;;;;;;;;;;;;;;;;;;4958905;28;19926;-54
2022/10/23 01:00:55;;;;;;;;;;;;;;;;;;4962138;28;19922;-54
2022/10/23 01:03:24;;;;;;;;;;;;;;;;;;4963462;28;19926;-54
2022/10/23 01:05:55;;;;;;;;;;;;;;;;;;4954314;28;20120;-54
2022/10/23 01:08:24;;;;;;;;;;;;;;;;;;4956632;28;19996;-55
2022/10/23 01:10:53;;;;;;;;;;;;;;;;;;4958032;28;19944;-54
2022/10/23 01:13:38;;;;;;;;;;;;;;;;;;4951663;28;20289;-54
2022/10/23 01:16:03;;;;;;;;;;;;;;;;;;4953628;28;19922;-54
2022/10/23 01:18:28;;;;;;;;;;;;;;;;;;4955975;28;20345;-54
2022/10/23 01:21:02;;;;;;;;;;;;;;;;;;4957813;28;19918;-55
2022/10/23 01:23:27;;;;;;;;;;;;;;;;;;4957358;28;19964;-54
2022/10/23 01:25:53;;;;;;;;;;;;;;;;;;4969178;28;19926;-54
2022/10/23 01:28:25;;;;;;;;;;;;;;;;;;4968739;28;20358;-53
2022/10/23 01:30:51;;;;;;;;;;;;;;;;;;4961702;28;19918;-56
2022/10/23 01:33:20;;;;;;;;;;;;;;;;;;4961749;28;19924;-54
2022/10/23 01:35:48;;;;;;;;;;;;;;;;;;4959933;28;19961;-55
2022/10/23 01:38:26;;;;;;;;;;;;;;;;;;4960661;28;19926;-54
2022/10/23 01:40:51;;;;;;;;;;;;;;;;;;4955350;28;19919;-54
2022/10/23 01:43:19;;;;;;;;;;;;;;;;;;4961558;28;19919;-54
2022/10/23 01:45:46;;;;;;;;;;;;;;;;;;4971417;28;19928;-54
2022/10/23 01:48:14;;;;;;;;;;;;;;;;;;4961851;28;19925;-54
2022/10/23 01:50:40;;;;;;;;;;;;;;;;;;4965794;28;19923;-56
2022/10/23 01:53:05;;;;;;;;;;;;;;;;;;4964277;28;19922;-54
2022/10/23 01:55:31;;;;;;;;;;;;;;;;;;4963621;28;19929;-54
2022/10/23 01:57:57;;;;;;;;;;;;;;;;;;4964085;28;19976;-54
2022/10/23 02:00:23;;;;;;;;;;;;;;;;;;4968680;28;19918;-54
2022/10/23 02:02:49;;;;;;;;;;;;;;;;;;4977540;28;20395;-55
2022/10/23 02:05:17;;;;;;;;;;;;;;;;;;4984220;28;20391;-53
2022/10/23 02:07:42;;;;;;;;;;;;;;;;;;4959261;28;19926;-54
2022/10/23 02:10:09;;;;;;;;;;;;;;;;;;4966447;28;20398;-52
2022/10/23 02:12:39;;;;;;;;;;;;;;;;;;4969017;28;20361;-54
2022/10/23 02:15:13;;;;;;;;;;;;;;;;;;4973234;28;19922;-54
2022/10/23 02:17:48;;;;;;;;;;;;;;;;;;4973480;28;20353;-55
2022/10/23 02:20:22;;;;;;;;;;;;;;;;;;4957816;28;19918;-51
2022/10/23 02:22:53;;;;;;;;;;;;;;;;;;4960274;28;19925;-55
2022/10/23 02:25:23;;;;;;;;;;;;;;;;;;4952560;28;19926;-54
2022/10/23 02:27:50;;;;;;;;;;;;;;;;;;4953511;28;20455;-53
2022/10/23 02:30:16;;;;;;;;;;;;;;;;;;4953770;28;19976;-53
2022/10/23 02:32:46;;;;;;;;;;;;;;;;;;4957454;28;19918;-51
2022/10/23 02:35:11;;;;;;;;;;;;;;;;;;4957022;28;19933;-53
2022/10/23 02:37:37;;;;;;;;;;;;;;;;;;4962013;28;19922;-54
2022/10/23 02:40:02;;;;;;;;;;;;;;;;;;4959050;28;19925;-55
2022/10/23 02:42:55;;;;;;;;;;;;;;;;;;4960602;28;20296;-52
2022/10/23 02:45:28;;;;;;;;;;;;;;;;;;4959198;28;20053;-52
2022/10/23 02:47:58;;;;;;;;;;;;;;;;;;4961400;28;20071;-53
2022/10/23 02:50:36;;;;;;;;;;;;;;;;;;4965244;28;19987;-51
2022/10/23 02:53:07;;;;;;;;;;;;;;;;;;4957647;28;19974;-53
2022/10/23 02:55:43;;;;;;;;;;;;;;;;;;4959646;28;19919;-53
2022/10/23 02:58:18;;;;;;;;;;;;;;;;;;4960995;28;20388;-51
2022/10/23 03:00:51;;;;;;;;;;;;;;;;;;4956018;28;19953;-54
2022/10/23 03:03:19;;;;;;;;;;;;;;;;;;4963869;28;20012;-53
2022/10/23 03:05:44;;;;;;;;;;;;;;;;;;4964601;28;20407;-53
2022/10/23 03:08:10;;;;;;;;;;;;;;;;;;4959960;28;19932;-54
2022/10/23 03:10:36;;;;;;;;;;;;;;;;;;4963323;28;19922;-54
2022/10/23 03:13:01;;;;;;;;;;;;;;;;;;4968994;28;19925;-56
2022/10/23 03:15:27;;;;;;;;;;;;;;;;;;4967627;28;20273;-54
2022/10/23 03:17:52;;;;;;;;;;;;;;;;;;4965595;28;19926;-51
2022/10/23 03:20:17;;;;;;;;;;;;;;;;;;4966748;28;20005;-54
2022/10/23 03:22:43;;;;;;;;;;;;;;;;;;4969346;28;20391;-53
2022/10/23 03:25:08;;;;;;;;;;;;;;;;;;4965248;28;19946;-53
2022/10/23 03:27:33;;;;;;;;;;;;;;;;;;4964827;28;19925;-51
2022/10/23 03:29:59;;;;;;;;;;;;;;;;;;4959202;28;20018;-53
2022/10/23 03:32:24;;;;;;;;;;;;;;;;;;4964781;28;19948;-55
2022/10/23 03:34:49;;;;;;;;;;;;;;;;;;4964657;28;19922;-53
2022/10/23 03:37:14;;;;;;;;;;;;;;;;;;4956382;28;20381;-52
2022/10/23 03:39:40;;;;;;;;;;;;;;;;;;4960049;28;19929;-53
2022/10/23 03:42:05;;;;;;;;;;;;;;;;;;4955132;28;19922;-55
2022/10/23 03:44:30;;;;;;;;;;;;;;;;;;4968380;28;19918;-51
2022/10/23 03:46:56;;;;;;;;;;;;;;;;;;4962356;28;20017;-54
2022/10/23 03:49:21;;;;;;;;;;;;;;;;;;4965390;28;19922;-56
2022/10/23 03:51:51;;;;;;;;;;;;;;;;;;4959358;28;19926;-54
2022/10/23 03:54:18;;;;;;;;;;;;;;;;;;4968088;28;20260;-51
2022/10/23 03:56:43;;;;;;;;;;;;;;;;;;4958823;28;19918;-54
2022/10/23 03:59:08;;;;;;;;;;;;;;;;;;4971543;28;20440;-53
2022/10/23 04:01:33;;;;;;;;;;;;;;;;;;4968144;28;19925;-54
2022/10/23 04:03:59;;;;;;;;;;;;;;;;;;4958473;28;19919;-54
2022/10/23 04:06:25;;;;;;;;;;;;;;;;;;4954772;28;20152;-52
2022/10/23 04:08:50;;;;;;;;;;;;;;;;;;4964191;28;19926;-53
2022/10/23 04:11:15;;;;;;;;;;;;;;;;;;4964074;28;19921;-55
2022/10/23 04:13:41;;;;;;;;;;;;;;;;;;4962976;28;19926;-55
2022/10/23 04:16:06;;;;;;;;;;;;;;;;;;4965046;28;19922;-51
2022/10/23 04:18:31;;;;;;;;;;;;;;;;;;4964999;28;20426;-56
2022/10/23 04:20:56;;;;;;;;;;;;;;;;;;4962378;28;20295;-54
2022/10/23 04:23:22;;;;;;;;;;;;;;;;;;4957293;28;20172;-52
2022/10/23 04:25:47;;;;;;;;;;;;;;;;;;4961138;28;19918;-56
2022/10/23 04:28:12;;;;;;;;;;;;;;;;;;4968289;28;19918;-54
2022/10/23 04:30:38;;;;;;;;;;;;;;;;;;4966166;28;20319;-52
2022/10/23 04:33:03;;;;;;;;;;;;;;;;;;4959996;28;19929;-57
2022/10/23 04:35:28;;;;;;;;;;;;;;;;;;4963104;28;19938;-55
2022/10/23 04:37:53;;;;;;;;;;;;;;;;;;4964432;28;19926;-54
2022/10/23 04:40:19;;;;;;;;;;;;;;;;;;4966112;28;20311;-52
2022/10/23 04:42:44;;;;;;;;;;;;;;;;;;4963575;28;19918;-51
2022/10/23 04:45:09;;;;;;;;;;;;;;;;;;4967930;28;19919;-54
2022/10/23 04:47:35;;;;;;;;;;;;;;;;;;4963570;28;19994;-54
2022/10/23 04:50:00;;;;;;;;;;;;;;;;;;4953809;28;20309;-54
2022/10/23 04:52:25;;;;;;;;;;;;;;;;;;4966463;28;19925;-53
2022/10/23 04:54:50;;;;;;;;;;;;;;;;;;4961676;28;19918;-53
2022/10/23 04:57:16;;;;;;;;;;;;;;;;;;4964795;28;20320;-56
2022/10/23 04:59:41;;;;;;;;;;;;;;;;;;4965430;28;19925;-54
2022/10/23 05:02:06;;;;;;;;;;;;;;;;;;4966259;28;19926;-54
2022/10/23 05:04:32;;;;;;;;;;;;;;;;;;4963240;28;19953;-58
2022/10/23 05:06:57;;;;;;;;;;;;;;;;;;4967031;28;19918;-57
2022/10/23 05:09:22;;;;;;;;;;;;;;;;;;4956917;28;19925;-57
2022/10/23 05:11:47;;;;;;;;;;;;;;;;;;4965144;28;19919;-57
2022/10/23 05:14:13;;;;;;;;;;;;;;;;;;4958693;28;19918;-57
2022/10/23 05:16:41;;;;;;;;;;;;;;;;;;4967482;28;19922;-57
2022/10/23 05:19:09;;;;;;;;;;;;;;;;;;4963174;28;19925;-55
2022/10/23 05:21:35;;;;;;;;;;;;;;;;;;4961131;28;19918;-57
2022/10/23 05:24:00;;;;;;;;;;;;;;;;;;4964202;28;19918;-57
2022/10/23 05:26:26;;;;;;;;;;;;;;;;;;4956880;28;20190;-57
2022/10/23 05:28:51;;;;;;;;;;;;;;;;;;4964687;28;19956;-57
2022/10/23 05:31:18;;;;;;;;;;;;;;;;;;4962600;28;19937;-56
2022/10/23 05:33:43;;;;;;;;;;;;;;;;;;4962637;28;19929;-57
2022/10/23 05:36:08;;;;;;;;;;;;;;;;;;4964906;28;20004;-57
2022/10/23 05:38:34;;;;;;;;;;;;;;;;;;4965073;28;19926;-56
2022/10/23 05:41:00;;;;;;;;;;;;;;;;;;4964498;28;19957;-57
2022/10/23 05:43:26;;;;;;;;;;;;;;;;;;4959639;28;19965;-57
2022/10/23 05:45:51;;;;;;;;;;;;;;;;;;4960264;28;19953;-56
2022/10/23 05:48:17;;;;;;;;;;;;;;;;;;4963033;28;19954;-56
2022/10/23 05:50:42;;;;;;;;;;;;;;;;;;4964595;28;19933;-56
2022/10/23 05:53:09;;;;;;;;;;;;;;;;;;4959220;28;20414;-56
2022/10/23 05:55:34;;;;;;;;;;;;;;;;;;4963074;28;19922;-57
2022/10/23 05:58:00;;;;;;;;;;;;;;;;;;4965001;28;19924;-56
2022/10/23 06:00:26;;;;;;;;;;;;;;;;;;4962523;28;19975;-56
2022/10/23 06:02:51;;;;;;;;;;;;;;;;;;4964023;28;20130;-56
2022/10/23 06:05:16;;;;;;;;;;;;;;;;;;4965843;28;20318;-56
2022/10/23 06:07:42;;;;;;;;;;;;;;;;;;4971759;28;19969;-56
2022/10/23 06:10:07;;;;;;;;;;;;;;;;;;4963497;28;20383;-56
2022/10/23 06:12:32;;;;;;;;;;;;;;;;;;4964346;28;19918;-56
2022/10/23 06:14:58;;;;;;;;;;;;;;;;;;4960949;28;19923;-56
2022/10/23 06:17:23;;;;;;;;;;;;;;;;;;4954893;28;20180;-56
2022/10/23 06:19:48;;;;;;;;;;;;;;;;;;4960295;28;19918;-57
2022/10/23 06:22:13;;;;;;;;;;;;;;;;;;4959331;28;21655;-56
2022/10/23 06:24:39;;;;;;;;;;;;;;;;;;4953002;28;19925;-57
2022/10/23 06:27:04;;;;;;;;;;;;;;;;;;4950068;28;19934;-56
2022/10/23 06:29:29;;;;;;;;;;;;;;;;;;4958725;28;19925;-57
2022/10/23 06:31:55;;;;;;;;;;;;;;;;;;4958508;28;20584;-56
2022/10/23 06:34:20;;;;;;;;;;;;;;;;;;4961359;28;20009;-56
2022/10/23 06:36:45;;;;;;;;;;;;;;;;;;4961881;28;19927;-56
2022/10/23 06:39:10;;;;;;;;;;;;;;;;;;4965671;28;19919;-56
2022/10/23 06:41:37;;;;;;;;;;;;;;;;;;4964080;28;19999;-56
2022/10/23 06:44:03;;;;;;;;;;;;;;;;;;4967182;28;19918;-56
2022/10/23 06:46:31;;;;;;;;;;;;;;;;;;4968938;28;19922;-56
2022/10/23 06:48:57;;;;;;;;;;;;;;;;;;4963074;28;19938;-56
2022/10/23 06:51:22;;;;;;;;;;;;;;;;;;4966103;28;19926;-56
2022/10/23 06:53:48;;;;;;;;;;;;;;;;;;4965930;28;20304;-56
2022/10/23 06:56:14;;;;;;;;;;;;;;;;;;4954773;28;19922;-56
2022/10/23 06:58:39;;;;;;;;;;;;;;;;;;4962401;28;20188;-56
2022/10/23 07:01:06;;;;;;;;;;;;;;;;;;4970837;28;19938;-57
2022/10/23 07:03:33;;;;;;;;;;;;;;;;;;4967672;28;19965;-54
2022/10/23 07:06:08;;;;;;;;;;;;;;;;;;4958595;28;19926;-58
2022/10/23 07:08:33;;;;;;;;;;;;;;;;;;4960575;28;20295;-57
2022/10/23 07:11:06;;;;;;;;;;;;;;;;;;4960793;28;19923;-56
2022/10/23 07:13:32;;;;;;;;;;;;;;;;;;4963057;28;20505;-55
2022/10/23 07:15:57;;;;;;;;;;;;;;;;;;4964638;28;19930;-55
2022/10/23 07:18:23;;;;;;;;;;;;;;;;;;4956786;28;19923;-56
2022/10/23 07:20:49;;;;;;;;;;;;;;;;;;4964813;28;20315;-56
2022/10/23 07:23:15;;;;;;;;;;;;;;;;;;4962811;28;20418;-56
2022/10/23 07:25:40;;;;;;;;;;;;;;;;;;4965571;28;19966;-56
2022/10/23 07:28:06;;;;;;;;;;;;;;;;;;4962083;28;19999;-56
2022/10/23 07:30:31;;;;;;;;;;;;;;;;;;4970556;28;20013;-59
2022/10/23 07:32:56;;;;;;;;;;;;;;;;;;4961844;28;19918;-57
2022/10/23 07:35:23;;;;;;;;;;;;;;;;;;4963757;28;19922;-57
2022/10/23 07:37:48;;;;;;;;;;;;;;;;;;4967175;28;19921;-57
2022/10/23 07:40:13;;;;;;;;;;;;;;;;;;4968021;28;19972;-56
2022/10/23 07:42:39;;;;;;;;;;;;;;;;;;4966222;28;19953;-56
2022/10/23 07:45:06;;;;;;;;;;;;;;;;;;4959858;28;19921;-56
2022/10/23 07:47:31;;;;;;;;;;;;;;;;;;4959700;28;19917;-56
2022/10/23 07:49:57;;;;;;;;;;;;;;;;;;4966232;28;19971;-59
2022/10/23 07:52:22;;;;;;;;;;;;;;;;;;4966020;28;19918;-56
2022/10/23 07:54:51;;;;;;;;;;;;;;;;;;4960068;28;19922;-56
2022/10/23 07:57:16;;;;;;;;;;;;;;;;;;4970078;28;19922;-58
2022/10/23 07:59:42;;;;;;;;;;;;;;;;;;4966773;28;19967;-57
2022/10/23 08:02:09;;;;;;;;;;;;;;;;;;4960148;28;20009;-56
2022/10/23 08:04:35;;;;;;;;;;;;;;;;;;4967056;28;19925;-58
2022/10/23 08:07:00;;;;;;;;;;;;;;;;;;4963991;28;19918;-58
2022/10/23 08:09:25;;;;;;;;;;;;;;;;;;4955413;28;20561;-56
2022/10/23 08:11:50;;;;;;;;;;;;;;;;;;4963538;28;19960;-56
2022/10/23 08:14:16;;;;;;;;;;;;;;;;;;4958077;28;19929;-55
2022/10/23 08:16:41;;;;;;;;;;;;;;;;;;4959406;28;19958;-55
2022/10/23 08:19:07;;;;;;;;;;;;;;;;;;4958559;28;20010;-56
2022/10/23 08:21:32;;;;;;;;;;;;;;;;;;4960301;28;20052;-56
2022/10/23 08:23:58;;;;;;;;;;;;;;;;;;4962574;28;19919;-56
2022/10/23 08:26:24;;;;;;;;;;;;;;;;;;4956120;28;19985;-57
2022/10/23 08:28:50;;;;;;;;;;;;;;;;;;4957548;28;19918;-58
2022/10/23 08:31:17;;;;;;;;;;;;;;;;;;4959110;28;19933;-55
2022/10/23 08:33:42;;;;;;;;;;;;;;;;;;4957945;28;20395;-56
2022/10/23 08:36:22;;;;;;;;;;;;;;;;;;4953241;28;19926;-57
2022/10/23 08:38:47;;;;;;;;;;;;;;;;;;4955233;28;19926;-57
2022/10/23 08:41:17;;;;;;;;;;;;;;;;;;4954687;28;20303;-57
2022/10/23 08:43:45;;;;;;;;;;;;;;;;;;4956306;28;20001;-57
2022/10/23 08:46:13;;;;;;;;;;;;;;;;;;4958886;28;20013;-57
2022/10/23 08:48:41;;;;;;;;;;;;;;;;;;4961565;28;20294;-56
2022/10/23 08:51:12;;;;;;;;;;;;;;;;;;4963319;28;20009;-57
2022/10/23 08:53:45;;;;;;;;;;;;;;;;;;4966858;28;19922;-56
2022/10/23 08:56:20;;;;;;;;;;;;;;;;;;4968101;28;19922;-57
2022/10/23 08:58:51;;;;;;;;;;;;;;;;;;4965505;28;20349;-57
2022/10/23 09:01:36;;;;;;;;;;;;;;;;;;4965685;28;20308;-56
2022/10/23 09:04:02;;;;;;;;;;;;;;;;;;4969636;28;20334;-56
2022/10/23 09:06:43;;;;;;;;;;;;;;;;;;4959106;28;19925;-57
2022/10/23 09:09:19;;;;;;;;;;;;;;;;;;4959305;28;19925;-57
2022/10/23 09:11:51;;;;;;;;;;;;;;;;;;4959731;28;20436;-57
2022/10/23 09:14:39;;;;;;;;;;;;;;;;;;4968386;28;20332;-58
2022/10/23 09:17:05;;;;;;;;;;;;;;;;;;4970762;28;19922;-56
2022/10/23 09:19:30;;;;;;;;;;;;;;;;;;4964570;28;19918;-56
2022/10/23 09:21:56;;;;;;;;;;;;;;;;;;4952681;28;19922;-57
2022/10/23 09:24:23;;;;;;;;;;;;;;;;;;4956031;28;19922;-57
2022/10/23 09:26:49;;;;;;;;;;;;;;;;;;4960713;28;19948;-57
2022/10/23 09:29:34;;;;;;;;;;;;;;;;;;4957468;28;19926;-57
2022/10/23 09:32:01;;;;;;;;;;;;;;;;;;4962708;28;19926;-57
2022/10/23 09:34:27;;;;;;;;;;;;;;;;;;4972284;28;19964;-57
2022/10/23 09:36:58;;;;;;;;;;;;;;;;;;4963049;28;19961;-57
2022/10/23 09:39:26;;;;;;;;;;;;;;;;;;4962898;28;19918;-57
2022/10/23 09:41:51;;;;;;;;;;;;;;;;;;4965301;28;19922;-57
2022/10/23 09:44:24;;;;;;;;;;;;;;;;;;4967506;28;20184;-57
2022/10/23 09:46:52;;;;;;;;;;;;;;;;;;4960350;28;19925;-57
2022/10/23 09:49:22;;;;;;;;;;;;;;;;;;4965277;28;19926;-57
2022/10/23 09:51:50;;;;;;;;;;;;;;;;;;4964376;28;19969;-57
2022/10/23 09:54:16;;;;;;;;;;;;;;;;;;4962420;28;20017;-57
2022/10/23 09:56:46;;;;;;;;;;;;;;;;;;4951554;28;20020;-57
2022/10/23 09:59:11;;;;;;;;;;;;;;;;;;4958342;28;20291;-56
2022/10/23 10:01:45;;;;;;;;;;;;;;;;;;4952630;28;19930;-57
2022/10/23 10:04:10;;;;;;;;;;;;;;;;;;4963087;28;20395;-57
2022/10/23 10:06:35;;;;;;;;;;;;;;;;;;4950956;28;19934;-56
2022/10/23 10:09:02;;;;;;;;;;;;;;;;;;4954658;28;19926;-57
2022/10/23 10:11:39;;;;;;;;;;;;;;;;;;4953672;28;19926;-56
2022/10/23 10:14:05;;;;;;;;;;;;;;;;;;4961644;28;19918;-57
2022/10/23 10:16:36;;;;;;;;;;;;;;;;;;4959272;28;19930;-57
2022/10/23 10:19:04;;;;;;;;;;;;;;;;;;4957776;28;20368;-58
2022/10/23 10:21:34;;;;;;;;;;;;;;;;;;4959218;28;20047;-58
2022/10/23 10:24:02;;;;;;;;;;;;;;;;;;4962755;28;19918;-57
2022/10/23 10:26:28;;;;;;;;;;;;;;;;;;4963921;28;19984;-58
2022/10/23 10:29:05;;;;;;;;;;;;;;;;;;4959956;28;19926;-58
2022/10/23 10:31:57;;;;;;;;;;;;;;;;;;4959402;28;19918;-57
2022/10/23 10:34:27;;;;;;;;;;;;;;;;;;4994425;28;19919;-57
2022/10/23 10:37:00;;;;;;;;;;;;;;;;;;4962946;28;19933;-58
2022/10/23 10:39:26;;;;;;;;;;;;;;;;;;4960925;28;19918;-58
2022/10/23 10:42:10;;;;;;;;;;;;;;;;;;4962732;28;20379;-58
2022/10/23 10:44:53;;;;;;;;;;;;;;;;;;4959508;28;19925;-58
2022/10/23 10:47:37;;;;;;;;;;;;;;;;;;4964618;28;20016;-60
2022/10/23 10:50:21;;;;;;;;;;;;;;;;;;4960125;28;20196;-60
2022/10/23 10:52:46;;;;;;;;;;;;;;;;;;4969621;28;20024;-59
2022/10/23 10:55:12;;;;;;;;;;;;;;;;;;4959566;28;20017;-59
2022/10/23 10:57:40;;;;;;;;;;;;;;;;;;4958663;28;19925;-58
2022/10/23 11:00:24;;;;;;;;;;;;;;;;;;4967943;28;19918;-59
2022/10/23 11:02:56;;;;;;;;;;;;;;;;;;4961221;28;19926;-58
2022/10/23 11:05:32;;;;;;;;;;;;;;;;;;4961926;28;19945;-58
2022/10/23 11:08:04;;;;;;;;;;;;;;;;;;4955651;28;19937;-57
2022/10/23 11:10:31;;;;;;;;;;;;;;;;;;4958137;28;19925;-58
2022/10/23 11:12:56;;;;;;;;;;;;;;;;;;4961716;28;19922;-57
2022/10/23 11:15:27;;;;;;;;;;;;;;;;;;4963082;28;20326;-58
2022/10/23 11:17:55;;;;;;;;;;;;;;;;;;4971182;28;19919;-57
2022/10/23 11:20:23;;;;;;;;;;;;;;;;;;4958198;28;19918;-57
2022/10/23 11:22:59;;;;;;;;;;;;;;;;;;4960469;28;20413;-58
2022/10/23 11:25:45;;;;;;;;;;;;;;;;;;4959216;28;19927;-58
2022/10/23 11:28:29;;;;;;;;;;;;;;;;;;4963965;28;19925;-58
2022/10/23 11:30:54;;;;;;;;;;;;;;;;;;4961109;28;19922;-59
2022/10/23 11:33:23;;;;;;;;;;;;;;;;;;4962840;28;19925;-59
2022/10/23 11:36:07;;;;;;;;;;;;;;;;;;4964744;28;20299;-59
2022/10/23 11:38:33;;;;;;;;;;;;;;;;;;4964026;28;19961;-59
2022/10/23 11:41:06;;;;;;;;;;;;;;;;;;4966420;28;19925;-59
2022/10/23 11:43:55;;;;;;;;;;;;;;;;;;4963989;28;19918;-59
2022/10/23 11:46:21;;;;;;;;;;;;;;;;;;4964302;28;19922;-60
2022/10/23 11:48:46;;;;;;;;;;;;;;;;;;4963900;28;20026;-58
2022/10/23 11:51:28;;;;;;;;;;;;;;;;;;4964665;28;19929;-58
2022/10/23 11:54:14;;;;;;;;;;;;;;;;;;4967490;28;20407;-58
2022/10/23 11:56:58;;;;;;;;;;;;;;;;;;4957743;28;20218;-57
2022/10/23 11:59:27;;;;;;;;;;;;;;;;;;4963820;28;20431;-60
2022/10/23 12:01:54;;;;;;;;;;;;;;;;;;4961291;28;20352;-59
2022/10/23 12:04:39;;;;;;;;;;;;;;;;;;4963192;28;20273;-59
2022/10/23 12:07:15;;;;;;;;;;;;;;;;;;4974178;28;19918;-58
2022/10/23 12:09:44;;;;;;;;;;;;;;;;;;4967697;28;19918;-59
2022/10/23 12:12:09;;;;;;;;;;;;;;;;;;4960268;28;19926;-59
2022/10/23 12:14:43;;;;;;;;;;;;;;;;;;4967836;28;20403;-59
2022/10/23 12:17:23;;;;;;;;;;;;;;;;;;4955712;28;19929;-59
2022/10/23 12:19:49;;;;;;;;;;;;;;;;;;4961543;28;20437;-58
2022/10/23 12:22:14;;;;;;;;;;;;;;;;;;4955461;28;19922;-60
2022/10/23 12:24:45;;;;;;;;;;;;;;;;;;4959576;28;19941;-59
2022/10/23 12:27:17;;;;;;;;;;;;;;;;;;4959835;28;19924;-58
2022/10/23 12:29:55;;;;;;;;;;;;;;;;;;4964463;28;19929;-59
2022/10/23 12:32:36;;;;;;;;;;;;;;;;;;4960688;28;19953;-61
2022/10/23 12:35:13;;;;;;;;;;;;;;;;;;4964000;28;20445;-60
2022/10/23 12:37:51;;;;;;;;;;;;;;;;;;4962758;28;19925;-58
2022/10/23 12:40:16;;;;;;;;;;;;;;;;;;4966114;28;19923;-58
2022/10/23 12:42:49;;;;;;;;;;;;;;;;;;4967931;28;19925;-59
2022/10/23 12:45:17;;;;;;;;;;;;;;;;;;4964877;28;19969;-59
2022/10/23 12:47:43;;;;;;;;;;;;;;;;;;4967571;28;19925;-59
2022/10/23 12:50:24;;;;;;;;;;;;;;;;;;4963348;28;20363;-59
2022/10/23 12:52:51;;;;;;;;;;;;;;;;;;4967262;28;19918;-59
2022/10/23 12:55:16;;;;;;;;;;;;;;;;;;4967971;28;19930;-60
2022/10/23 12:57:42;;;;;;;;;;;;;;;;;;4969872;28;20431;-59
2022/10/23 13:00:11;;;;;;;;;;;;;;;;;;4964620;28;19929;-57
2022/10/23 13:02:36;;;;;;;;;;;;;;;;;;4961177;28;20416;-53
2022/10/23 13:05:04;;;;;;;;;;;;;;;;;;4959479;28;19925;-54
2022/10/23 13:07:31;;;;;;;;;;;;;;;;;;4962135;28;19927;-54
2022/10/23 13:09:57;;;;;;;;;;;;;;;;;;4966851;28;20347;-58
2022/10/23 13:12:27;;;;;;;;;;;;;;;;;;4959582;28;19922;-58
2022/10/23 13:14:57;;;;;;;;;;;;;;;;;;4972578;28;19928;-58
2022/10/23 13:17:32;;;;;;;;;;;;;;;;;;4962701;28;20323;-58
2022/10/23 13:20:07;;;;;;;;;;;;;;;;;;4953776;28;19965;-58
2022/10/23 13:22:32;;;;;;;;;;;;;;;;;;4956104;28;20281;-58
2022/10/23 13:24:57;;;;;;;;;;;;;;;;;;4953087;28;19918;-59
2022/10/23 13:27:24;;;;;;;;;;;;;;;;;;4954825;28;19941;-58
2022/10/23 13:29:50;;;;;;;;;;;;;;;;;;4959899;28;20299;-58
2022/10/23 13:32:27;;;;;;;;;;;;;;;;;;4987423;28;19918;-58
2022/10/23 13:34:55;;;;;;;;;;;;;;;;;;4966708;28;19918;-58
2022/10/23 13:37:21;;;;;;;;;;;;;;;;;;4956600;28;19922;-58
2022/10/23 13:39:46;;;;;;;;;;;;;;;;;;4961141;28;20308;-58
2022/10/23 13:42:13;;;;;;;;;;;;;;;;;;4962606;28;20384;-58
2022/10/23 13:44:38;;;;;;;;;;;;;;;;;;4963285;28;20353;-57
2022/10/23 13:47:04;;;;;;;;;;;;;;;;;;4963984;28;20005;-58
2022/10/23 13:49:29;;;;;;;;;;;;;;;;;;4959593;28;19922;-58
2022/10/23 13:51:55;;;;;;;;;;;;;;;;;;4956018;28;20392;-58
2022/10/23 13:54:22;;;;;;;;;;;;;;;;;;4965538;28;20024;-58
2022/10/23 13:56:48;;;;;;;;;;;;;;;;;;4963346;28;19969;-58
2022/10/23 13:59:14;;;;;;;;;;;;;;;;;;4973917;28;20349;-58
2022/10/23 14:01:39;;;;;;;;;;;;;;;;;;4963138;28;19929;-58
2022/10/23 14:04:05;;;;;;;;;;;;;;;;;;4960999;28;19965;-58
2022/10/23 14:06:31;;;;;;;;;;;;;;;;;;4956957;28;19925;-58
2022/10/23 14:08:56;;;;;;;;;;;;;;;;;;4961721;28;19926;-58
2022/10/23 14:11:22;;;;;;;;;;;;;;;;;;4960202;28;19965;-57
2022/10/23 14:13:48;;;;;;;;;;;;;;;;;;4960420;28;19918;-58
2022/10/23 14:16:15;;;;;;;;;;;;;;;;;;4955753;28;19923;-57
2022/10/23 14:18:40;;;;;;;;;;;;;;;;;;4957178;28;19919;-57
2022/10/23 14:21:06;;;;;;;;;;;;;;;;;;4958606;28;19952;-58
2022/10/23 14:23:31;;;;;;;;;;;;;;;;;;4958286;28;19918;-58
2022/10/23 14:26:04;;;;;;;;;;;;;;;;;;4960156;28;19918;-57
2022/10/23 14:28:29;;;;;;;;;;;;;;;;;;4962229;28;20056;-58
2022/10/23 14:30:55;;;;;;;;;;;;;;;;;;4961172;28;20013;-58
2022/10/23 14:33:20;;;;;;;;;;;;;;;;;;4959626;28;20505;-59
2022/10/23 14:35:45;;;;;;;;;;;;;;;;;;4961874;28;19926;-58
2022/10/23 14:38:10;;;;;;;;;;;;;;;;;;4964920;28;20029;-58
2022/10/23 14:40:37;;;;;;;;;;;;;;;;;;4960154;28;19922;-57
2022/10/23 14:43:02;;;;;;;;;;;;;;;;;;4967576;28;19988;-58
2022/10/23 14:45:28;;;;;;;;;;;;;;;;;;4962106;28;19962;-58
2022/10/23 14:47:54;;;;;;;;;;;;;;;;;;4966059;28;19926;-58
2022/10/23 14:50:19;;;;;;;;;;;;;;;;;;4968861;28;20005;-58
2022/10/23 14:52:45;;;;;;;;;;;;;;;;;;4966631;28;19918;-57
2022/10/23 14:55:10;;;;;;;;;;;;;;;;;;4971945;28;20423;-57
2022/10/23 14:57:36;;;;;;;;;;;;;;;;;;4956066;28;19928;-58
2022/10/23 15:00:02;;;;;;;;;;;;;;;;;;4956952;28;19933;-58
2022/10/23 15:02:28;;;;;;;;;;;;;;;;;;4958303;28;20284;-58
2022/10/23 15:04:53;;;;;;;;;;;;;;;;;;4961695;28;19933;-58
2022/10/23 15:07:18;;;;;;;;;;;;;;;;;;4960527;28;19965;-58
2022/10/23 15:09:44;;;;;;;;;;;;;;;;;;4966336;28;19919;-57
2022/10/23 15:12:09;;;;;;;;;;;;;;;;;;4966673;28;19940;-58
2022/10/23 15:14:35;;;;;;;;;;;;;;;;;;4966911;28;19919;-58
2022/10/23 15:17:00;;;;;;;;;;;;;;;;;;4960694;28;19922;-58
2022/10/23 15:19:26;;;;;;;;;;;;;;;;;;4963386;28;19918;-58
2022/10/23 15:21:51;;;;;;;;;;;;;;;;;;4955734;28;20379;-58
2022/10/23 15:24:17;;;;;;;;;;;;;;;;;;4961198;28;19922;-58
2022/10/23 15:26:42;;;;;;;;;;;;;;;;;;4961861;28;19953;-58
2022/10/23 15:29:08;;;;;;;;;;;;;;;;;;4968214;28;20001;-58
2022/10/23 15:31:36;;;;;;;;;;;;;;;;;;4962872;28;20389;-58
2022/10/23 15:34:02;;;;;;;;;;;;;;;;;;4963927;28;19930;-58
2022/10/23 15:36:27;;;;;;;;;;;;;;;;;;4966086;28;20380;-58
2022/10/23 15:38:53;;;;;;;;;;;;;;;;;;4959800;28;19926;-58
2022/10/23 15:41:25;;;;;;;;;;;;;;;;;;4965665;28;19918;-55
2022/10/23 15:43:51;;;;;;;;;;;;;;;;;;4960131;28;20050;-54
2022/10/23 15:46:16;;;;;;;;;;;;;;;;;;4976264;28;19995;-53
2022/10/23 15:48:41;;;;;;;;;;;;;;;;;;4981850;28;20286;-54
2022/10/23 15:51:07;;;;;;;;;;;;;;;;;;4965741;28;19934;-53
2022/10/23 15:53:32;;;;;;;;;;;;;;;;;;4959632;28;20388;-54
2022/10/23 15:55:57;;;;;;;;;;;;;;;;;;4968187;28;19923;-56
2022/10/23 15:58:23;;;;;;;;;;;;;;;;;;4971867;28;19918;-56
2022/10/23 16:00:48;;;;;;;;;;;;;;;;;;4976317;28;19972;-56
2022/10/23 16:03:14;;;;;;;;;;;;;;;;;;4976773;28;19925;-55
2022/10/23 16:05:39;;;;;;;;;;;;;;;;;;4967331;28;19926;-55
2022/10/23 16:08:05;;;;;;;;;;;;;;;;;;4965570;28;19922;-55
2022/10/23 16:10:30;;;;;;;;;;;;;;;;;;4955229;28;19918;-57
2022/10/23 16:12:56;;;;;;;;;;;;;;;;;;4958097;28;19925;-55
2022/10/23 16:15:21;;;;;;;;;;;;;;;;;;4955976;28;20289;-57
2022/10/23 16:17:47;;;;;;;;;;;;;;;;;;4959312;28;19944;-55
2022/10/23 16:20:13;;;;;;;;;;;;;;;;;;4963097;28;20365;-55
2022/10/23 16:22:39;;;;;;;;;;;;;;;;;;4960771;28;20013;-56
2022/10/23 16:25:04;;;;;;;;;;;;;;;;;;4961178;28;20013;-56
2022/10/23 16:27:30;;;;;;;;;;;;;;;;;;4964381;28;19988;-54
2022/10/23 16:29:55;;;;;;;;;;;;;;;;;;4965711;28;19942;-57
2022/10/23 16:32:21;;;;;;;;;;;;;;;;;;4964322;28;19925;-57
2022/10/23 16:34:46;;;;;;;;;;;;;;;;;;4972925;28;20304;-58
2022/10/23 16:37:11;;;;;;;;;;;;;;;;;;4968201;28;19987;-58
2022/10/23 16:39:36;;;;;;;;;;;;;;;;;;4965001;28;19922;-58
2022/10/23 16:42:02;;;;;;;;;;;;;;;;;;4964554;28;20368;-57
2022/10/23 16:44:28;;;;;;;;;;;;;;;;;;4960017;28;19926;-58
2022/10/23 16:46:53;;;;;;;;;;;;;;;;;;4956948;28;19926;-57
2022/10/23 16:49:18;;;;;;;;;;;;;;;;;;4959277;28;19922;-57
2022/10/23 16:51:44;;;;;;;;;;;;;;;;;;4961298;28;19918;-57